Time;durP1;ratioP1;P1;durP2;ratioP2;P2;SDS_P1;SDS_P2;PMS_P1;PMS_P2;Temp;Humidity;BMP_temperature;BMP_pressure;BME280_temperature;BME280_humidity;BME280_pressure;Samples;Min_cycle;Max_cycle;Signal;HPM_P1;HPM_P2
2023/12/06 00:01:14;;;;;;;10.23;5.43;;;;;;;;;;4978426;28;20232;-64
2023/12/06 00:03:43;;;;;;;12.90;6.63;;;;;;;;;;4976956;28;20284;-64
2023/12/06 00:06:12;;;;;;;7.87;4.43;;;;;;;;;;4977151;28;20205;-64
2023/12/06 00:08:40;;;;;;;14.90;6.13;;;;;;;;;;4978482;28;20264;-64
2023/12/06 00:11:08;;;;;;;9.03;5.47;;;;;;;;;;4978570;28;20308;-64
2023/12/06 00:13:38;;;;;;;9.37;5.47;;;;;;;;;;4978742;28;20241;-64
2023/12/06 00:16:08;;;;;;;9.73;4.90;;;;;;;;;;4978803;28;20201;-64
2023/12/06 00:18:36;;;;;;;10.63;5.40;;;;;;;;;;4978700;28;20229;-64
2023/12/06 00:21:05;;;;;;;7.97;4.63;;;;;;;;;;4978738;28;20253;-64
2023/12/06 00:23:33;;;;;;;9.57;5.17;;;;;;;;;;4977702;28;20206;-64
2023/12/06 00:26:01;;;;;;;8.80;5.47;;;;;;;;;;4978382;28;20208;-64
2023/12/06 00:28:29;;;;;;;10.10;4.70;;;;;;;;;;4978644;28;20211;-64
2023/12/06 00:30:59;;;;;;;10.20;4.87;;;;;;;;;;4975600;28;20218;-64
2023/12/06 00:33:28;;;;;;;14.53;4.97;;;;;;;;;;4978570;28;20229;-64
2023/12/06 00:35:56;;;;;;;7.77;5.00;;;;;;;;;;4978463;28;20773;-64
2023/12/06 00:38:25;;;;;;;12.17;5.37;;;;;;;;;;4978184;28;20728;-64
2023/12/06 00:40:54;;;;;;;8.70;5.50;;;;;;;;;;4980212;28;20235;-64
2023/12/06 00:43:22;;;;;;;11.77;6.00;;;;;;;;;;4977584;28;20206;-63
2023/12/06 00:45:50;;;;;;;10.23;5.77;;;;;;;;;;4978266;28;20574;-64
2023/12/06 00:48:20;;;;;;;9.10;4.97;;;;;;;;;;4977978;28;20203;-64
2023/12/06 00:50:48;;;;;;;9.60;5.53;;;;;;;;;;4970945;28;20225;-64
2023/12/06 00:53:16;;;;;;;9.93;5.20;;;;;;;;;;4978117;28;20201;-64
2023/12/06 00:55:44;;;;;;;18.37;6.33;;;;;;;;;;4980266;28;20681;-64
2023/12/06 00:58:12;;;;;;;12.57;5.40;;;;;;;;;;4981351;28;20229;-64
2023/12/06 01:00:41;;;;;;;8.07;5.20;;;;;;;;;;4978273;28;20264;-64
2023/12/06 01:03:09;;;;;;;10.53;6.20;;;;;;;;;;4976904;28;20548;-64
2023/12/06 01:05:38;;;;;;;8.87;5.43;;;;;;;;;;4978295;28;20202;-64
2023/12/06 01:08:06;;;;;;;10.87;5.60;;;;;;;;;;4978469;28;20209;-64
2023/12/06 01:10:35;;;;;;;10.23;5.90;;;;;;;;;;4978444;28;20475;-64
2023/12/06 01:13:03;;;;;;;15.70;7.00;;;;;;;;;;4974804;28;20206;-64
2023/12/06 01:15:31;;;;;;;12.87;7.70;;;;;;;;;;4977803;28;20707;-64
2023/12/06 01:17:59;;;;;;;12.90;6.57;;;;;;;;;;4978278;28;20273;-64
2023/12/06 01:20:28;;;;;;;15.97;6.50;;;;;;;;;;4977643;28;20846;-64
2023/12/06 01:22:57;;;;;;;10.37;6.23;;;;;;;;;;4978177;28;20456;-64
2023/12/06 01:25:25;;;;;;;16.50;8.87;;;;;;;;;;4978201;28;20529;-64
2023/12/06 01:27:53;;;;;;;14.60;8.60;;;;;;;;;;4978112;28;20544;-64
2023/12/06 01:30:21;;;;;;;15.63;8.83;;;;;;;;;;4977774;28;20464;-64
2023/12/06 01:32:49;;;;;;;12.57;8.37;;;;;;;;;;4978030;28;20483;-64
2023/12/06 01:35:17;;;;;;;14.63;8.53;;;;;;;;;;4979734;28;20447;-64
2023/12/06 01:37:45;;;;;;;19.70;8.67;;;;;;;;;;4984651;28;20477;-64
2023/12/06 01:40:15;;;;;;;11.47;8.07;;;;;;;;;;4984158;28;20480;-64
2023/12/06 01:42:45;;;;;;;12.00;8.93;;;;;;;;;;4981935;28;20536;-64
2023/12/06 01:45:13;;;;;;;14.53;9.43;;;;;;;;;;4981891;28;20536;-64
2023/12/06 01:47:42;;;;;;;19.07;9.60;;;;;;;;;;4981428;28;20476;-63
2023/12/06 01:50:10;;;;;;;14.83;9.27;;;;;;;;;;4981403;28;20451;-63
2023/12/06 01:52:38;;;;;;;15.57;8.50;;;;;;;;;;4981162;28;20444;-63
2023/12/06 01:55:07;;;;;;;12.70;8.17;;;;;;;;;;4981639;28;20449;-64
2023/12/06 01:57:37;;;;;;;12.37;7.80;;;;;;;;;;4983077;28;20519;-64
2023/12/06 02:00:07;;;;;;;16.63;8.93;;;;;;;;;;4981276;28;20543;-64
2023/12/06 02:02:35;;;;;;;21.83;8.90;;;;;;;;;;4981387;28;20445;-64
2023/12/06 02:05:03;;;;;;;13.60;8.50;;;;;;;;;;4979492;28;20474;-64
2023/12/06 02:07:33;;;;;;;15.87;8.57;;;;;;;;;;4980940;28;20508;-63
2023/12/06 02:10:02;;;;;;;15.50;8.83;;;;;;;;;;4981364;28;20448;-63
2023/12/06 02:12:31;;;;;;;14.63;8.37;;;;;;;;;;4980797;28;20552;-63
2023/12/06 02:15:01;;;;;;;14.80;8.27;;;;;;;;;;4981078;28;20857;-63
2023/12/06 02:17:29;;;;;;;14.43;8.50;;;;;;;;;;4981339;28;20444;-64
2023/12/06 02:19:58;;;;;;;13.17;7.90;;;;;;;;;;4981240;28;20563;-64
2023/12/06 02:22:26;;;;;;;13.40;8.57;;;;;;;;;;4980545;28;20461;-64
2023/12/06 02:24:57;;;;;;;15.80;8.97;;;;;;;;;;4981132;28;20452;-64
2023/12/06 02:27:26;;;;;;;15.53;8.37;;;;;;;;;;4981272;28;20449;-64
2023/12/06 02:29:54;;;;;;;12.30;7.87;;;;;;;;;;4980897;28;20712;-63
2023/12/06 02:32:22;;;;;;;12.97;7.20;;;;;;;;;;4985590;28;20460;-64
2023/12/06 02:34:51;;;;;;;13.50;8.13;;;;;;;;;;4988297;28;20448;-63
2023/12/06 02:37:22;;;;;;;15.10;8.27;;;;;;;;;;4984881;28;20283;-64
2023/12/06 02:39:53;;;;;;;13.20;8.40;;;;;;;;;;4987997;28;20232;-64
2023/12/06 02:42:21;;;;;;;14.93;8.67;;;;;;;;;;4980617;28;20564;-64
2023/12/06 02:44:50;;;;;;;14.17;7.93;;;;;;;;;;4980487;28;20917;-64
2023/12/06 02:47:18;;;;;;;12.67;7.23;;;;;;;;;;4979689;28;20883;-64
2023/12/06 02:49:47;;;;;;;11.87;7.20;;;;;;;;;;4980310;28;20772;-64
2023/12/06 02:52:17;;;;;;;15.73;6.73;;;;;;;;;;4980253;28;20867;-64
2023/12/06 02:54:46;;;;;;;11.40;7.00;;;;;;;;;;4980574;28;20437;-63
2023/12/06 02:57:14;;;;;;;14.07;8.53;;;;;;;;;;4980102;28;20487;-64
2023/12/06 02:59:45;;;;;;;16.83;8.80;;;;;;;;;;4980612;28;20540;-64
2023/12/06 03:02:15;;;;;;;14.37;8.40;;;;;;;;;;4980180;28;20472;-64
2023/12/06 03:04:43;;;;;;;15.33;8.27;;;;;;;;;;4980101;28;20449;-64
2023/12/06 03:07:11;;;;;;;19.33;8.97;;;;;;;;;;4979849;28;20445;-64
2023/12/06 03:09:39;;;;;;;20.27;10.00;;;;;;;;;;4980459;28;20446;-64
2023/12/06 03:12:08;;;;;;;18.40;9.87;;;;;;;;;;4979953;28;20456;-63
2023/12/06 03:14:36;;;;;;;15.93;8.87;;;;;;;;;;4980407;28;20928;-64
2023/12/06 03:17:04;;;;;;;17.87;9.40;;;;;;;;;;4979798;28;20472;-64
2023/12/06 03:19:34;;;;;;;15.67;9.03;;;;;;;;;;4979724;28;21050;-63
2023/12/06 03:22:02;;;;;;;16.33;9.43;;;;;;;;;;4979817;28;20457;-63
2023/12/06 03:24:30;;;;;;;17.23;9.67;;;;;;;;;;4974985;28;20445;-64
2023/12/06 03:26:58;;;;;;;18.27;9.97;;;;;;;;;;4979863;28;20499;-64
2023/12/06 03:29:26;;;;;;;16.60;9.27;;;;;;;;;;4979693;28;20469;-63
2023/12/06 03:31:54;;;;;;;20.30;10.73;;;;;;;;;;4979831;28;20476;-64
2023/12/06 03:34:22;;;;;;;19.80;12.13;;;;;;;;;;4979678;28;20449;-64
2023/12/06 03:36:52;;;;;;;18.33;10.90;;;;;;;;;;4979839;28;20850;-64
2023/12/06 03:39:20;;;;;;;18.00;10.23;;;;;;;;;;4982638;28;20855;-63
2023/12/06 03:41:48;;;;;;;17.87;9.23;;;;;;;;;;4982700;28;20468;-63
2023/12/06 03:44:16;;;;;;;12.17;7.90;;;;;;;;;;4979665;28;20205;-63
2023/12/06 03:46:44;;;;;;;14.00;7.80;;;;;;;;;;4979448;28;20825;-63
2023/12/06 03:49:12;;;;;;;12.57;7.93;;;;;;;;;;4978647;28;20878;-63
2023/12/06 03:51:41;;;;;;;13.07;8.60;;;;;;;;;;4978527;28;20873;-63
2023/12/06 03:54:11;;;;;;;12.23;7.67;;;;;;;;;;4979098;28;20441;-63
2023/12/06 03:56:39;;;;;;;14.10;8.70;;;;;;;;;;4977286;28;20459;-63
2023/12/06 03:59:07;;;;;;;17.67;8.67;;;;;;;;;;4985218;28;20806;-63
2023/12/06 04:01:35;;;;;;;14.13;8.23;;;;;;;;;;4978883;28;20488;-63
2023/12/06 04:04:03;;;;;;;14.00;7.77;;;;;;;;;;4978920;28;20445;-64
2023/12/06 04:06:31;;;;;;;14.23;7.93;;;;;;;;;;4978658;28;20817;-63
2023/12/06 04:08:59;;;;;;;13.43;8.80;;;;;;;;;;4978701;28;20940;-63
2023/12/06 04:11:29;;;;;;;10.53;7.33;;;;;;;;;;4978873;28;20468;-63
2023/12/06 04:13:57;;;;;;;14.10;7.47;;;;;;;;;;4979144;28;20946;-63
2023/12/06 04:16:25;;;;;;;14.17;8.23;;;;;;;;;;4976720;28;20448;-63
2023/12/06 04:18:53;;;;;;;12.63;7.53;;;;;;;;;;4978773;28;20441;-63
2023/12/06 04:21:21;;;;;;;16.40;7.93;;;;;;;;;;4979001;28;20543;-63
2023/12/06 04:23:49;;;;;;;13.67;7.90;;;;;;;;;;4978195;28;20471;-63
2023/12/06 04:26:18;;;;;;;13.43;7.93;;;;;;;;;;4979034;28;20449;-63
2023/12/06 04:28:50;;;;;;;15.10;7.70;;;;;;;;;;4978799;28;20440;-63
2023/12/06 04:31:18;;;;;;;13.97;7.77;;;;;;;;;;4978741;28;20509;-63
2023/12/06 04:33:46;;;;;;;12.93;7.73;;;;;;;;;;4978462;28;20986;-63
2023/12/06 04:36:14;;;;;;;12.23;8.10;;;;;;;;;;4978875;28;20929;-63
2023/12/06 04:38:42;;;;;;;13.80;7.67;;;;;;;;;;4978159;28;20477;-63
2023/12/06 04:41:10;;;;;;;11.30;6.90;;;;;;;;;;4980866;28;20484;-63
2023/12/06 04:43:39;;;;;;;14.03;8.07;;;;;;;;;;4978667;28;20445;-64
2023/12/06 04:46:08;;;;;;;14.17;7.77;;;;;;;;;;4978925;28;20445;-64
2023/12/06 04:48:37;;;;;;;12.03;7.73;;;;;;;;;;4978488;28;20536;-64
2023/12/06 04:51:05;;;;;;;10.80;7.67;;;;;;;;;;4978070;28;20473;-64
2023/12/06 04:53:33;;;;;;;12.63;7.93;;;;;;;;;;4978366;28;20456;-64
2023/12/06 04:56:02;;;;;;;13.27;6.93;;;;;;;;;;4978228;28;20444;-63
2023/12/06 04:58:31;;;;;;;12.60;7.70;;;;;;;;;;4982681;28;20448;-63
2023/12/06 05:00:59;;;;;;;12.17;7.57;;;;;;;;;;4977816;28;20507;-63
2023/12/06 05:03:29;;;;;;;12.60;6.83;;;;;;;;;;4976454;28;20467;-63
2023/12/06 05:05:57;;;;;;;13.13;7.37;;;;;;;;;;4978349;28;20456;-63
2023/12/06 05:08:26;;;;;;;15.30;7.97;;;;;;;;;;4978078;28;20856;-64
2023/12/06 05:10:55;;;;;;;19.40;8.07;;;;;;;;;;4977444;28;20476;-64
2023/12/06 05:13:23;;;;;;;9.37;6.87;;;;;;;;;;4981953;28;20507;-63
2023/12/06 05:15:53;;;;;;;12.20;7.33;;;;;;;;;;4981848;28;20437;-64
2023/12/06 05:18:21;;;;;;;14.53;7.27;;;;;;;;;;4981946;28;21003;-63
2023/12/06 05:20:51;;;;;;;11.37;7.43;;;;;;;;;;4982226;28;20527;-63
2023/12/06 05:23:20;;;;;;;11.40;7.63;;;;;;;;;;4981633;28;20489;-63
2023/12/06 05:25:48;;;;;;;14.27;8.17;;;;;;;;;;4977537;28;20445;-62
2023/12/06 05:28:17;;;;;;;16.57;7.70;;;;;;;;;;4976151;28;20484;-62
2023/12/06 05:30:46;;;;;;;15.00;7.17;;;;;;;;;;4980396;28;20544;-62
2023/12/06 05:33:14;;;;;;;11.30;7.07;;;;;;;;;;4979702;28;20453;-63
2023/12/06 05:35:42;;;;;;;10.00;6.47;;;;;;;;;;4982228;28;20503;-62
2023/12/06 05:38:29;;;;;;;15.97;7.63;;;;;;;;;;4969253;28;20477;-63
2023/12/06 05:40:59;;;;;;;12.80;7.67;;;;;;;;;;4976382;28;20843;-63
2023/12/06 05:43:27;;;;;;;14.67;7.40;;;;;;;;;;4979496;28;20809;-64
2023/12/06 05:45:55;;;;;;;13.80;7.87;;;;;;;;;;4978219;28;20452;-63
2023/12/06 05:48:24;;;;;;;10.20;7.23;;;;;;;;;;4978429;28;20449;-64
2023/12/06 05:50:52;;;;;;;12.43;7.23;;;;;;;;;;4977951;28;20452;-63
2023/12/06 05:53:21;;;;;;;12.80;7.80;;;;;;;;;;4981542;28;20491;-62
2023/12/06 05:55:49;;;;;;;8.17;6.83;;;;;;;;;;4981260;28;20444;-63
2023/12/06 05:58:19;;;;;;;12.17;7.03;;;;;;;;;;4984313;28;20455;-63
2023/12/06 06:04:16;;;;;;;11.17;6.90;;;;;;;;;;4980242;28;20427;-63
2023/12/06 06:06:44;;;;;;;12.50;6.53;;;;;;;;;;4981143;28;20441;-63
2023/12/06 06:12:41;;;;;;;9.20;6.70;;;;;;;;;;4982991;28;20467;-62
2023/12/06 06:18:38;;;;;;;9.63;5.77;;;;;;;;;;4979637;28;20907;-62
2023/12/06 06:21:07;;;;;;;9.97;6.40;;;;;;;;;;4980596;28;20484;-63
2023/12/06 06:23:35;;;;;;;13.07;7.20;;;;;;;;;;4981218;28;20463;-62
2023/12/06 06:26:12;;;;;;;10.40;6.40;;;;;;;;;;4973372;28;20456;-63
2023/12/06 06:28:40;;;;;;;12.33;7.07;;;;;;;;;;4976188;28;20460;-63
2023/12/06 06:34:26;;;;;;;9.60;6.60;;;;;;;;;;4972083;28;20441;-63
2023/12/06 06:36:54;;;;;;;12.20;7.37;;;;;;;;;;4980263;28;20445;-63
2023/12/06 06:42:45;;;;;;;13.10;6.63;;;;;;;;;;4972190;28;20496;-63
2023/12/06 06:45:26;;;;;;;10.07;6.53;;;;;;;;;;4978918;28;20537;-64
2023/12/06 06:48:33;;;;;;;13.43;9.37;;;;;;;;;;4978715;28;20460;-63
2023/12/06 06:51:09;;;;;;;14.47;6.60;;;;;;;;;;4975766;28;21023;-64
2023/12/06 06:53:44;;;;;;;12.43;6.27;;;;;;;;;;4983774;28;20468;-63
2023/12/06 06:56:13;;;;;;;24.40;8.87;;;;;;;;;;4978311;28;20448;-63
2023/12/06 06:58:42;;;;;;;9.13;6.10;;;;;;;;;;4979373;28;20487;-63
2023/12/06 07:01:10;;;;;;;16.73;6.23;;;;;;;;;;4976271;28;20461;-64
2023/12/06 07:03:38;;;;;;;10.53;6.40;;;;;;;;;;4977965;28;20441;-63
2023/12/06 07:06:08;;;;;;;16.37;7.23;;;;;;;;;;4976903;28;20453;-63
2023/12/06 07:15:26;;;;;;;8.47;5.90;;;;;;;;;;4978729;28;20477;-63
2023/12/06 07:17:55;;;;;;;9.07;6.40;;;;;;;;;;4979564;28;20491;-63
2023/12/06 07:23:31;;;;;;;9.30;6.30;;;;;;;;;;4944191;28;20952;-62
2023/12/06 07:25:59;;;;;;;8.23;5.57;;;;;;;;;;4979505;28;20449;-63
2023/12/06 07:28:28;;;;;;;8.20;6.20;;;;;;;;;;4979330;28;20449;-61
2023/12/06 07:31:00;;;;;;;11.23;6.23;;;;;;;;;;4979196;28;20461;-61
2023/12/06 07:33:47;;;;;;;9.10;6.17;;;;;;;;;;4978025;28;20445;-62
2023/12/06 07:43:06;;;;;;;11.90;6.33;;;;;;;;;;4966297;28;20523;-65
2023/12/06 07:49:03;;;;;;;12.13;5.53;;;;;;;;;;4974702;28;20400;-64
2023/12/06 07:51:41;;;;;;;12.30;6.97;;;;;;;;;;4978551;28;20465;-64
2023/12/06 07:54:24;;;;;;;9.83;5.50;;;;;;;;;;4974577;28;20476;-67
2023/12/06 07:56:56;;;;;;;10.47;5.87;;;;;;;;;;4979077;28;20841;-65
2023/12/06 07:59:29;;;;;;;9.63;5.90;;;;;;;;;;4983538;28;20483;-64
2023/12/06 08:01:58;;;;;;;10.27;5.80;;;;;;;;;;4978884;28;20825;-67
2023/12/06 08:04:27;;;;;;;7.30;5.23;;;;;;;;;;4978969;28;20441;-69
2023/12/06 08:06:55;;;;;;;14.80;5.93;;;;;;;;;;4978758;28;20516;-70
2023/12/06 08:12:25;;;;;;;13.17;6.00;;;;;;;;;;4963686;28;20524;-71
2023/12/06 08:18:44;;;;;;;11.50;5.97;;;;;;;;;;4918115;29;20444;-75
2023/12/06 08:21:19;;;;;;;11.33;5.83;;;;;;;;;;4915225;29;20971;-74
2023/12/06 08:23:52;;;;;;;14.43;6.37;;;;;;;;;;4916952;29;20318;-74
2023/12/06 08:26:21;;;;;;;11.93;6.23;;;;;;;;;;4903378;29;20205;-75
2023/12/06 08:32:12;;;;;;;7.23;5.77;;;;;;;;;;4918213;29;20648;-74
2023/12/06 08:39:21;;;;;;;9.97;6.37;;;;;;;;;;4907651;29;20216;-75
2023/12/06 08:42:07;;;;;;;14.17;6.20;;;;;;;;;;4913844;29;20223;-77
2023/12/06 08:44:43;;;;;;;13.67;6.33;;;;;;;;;;4917308;29;20253;-73
2023/12/06 08:47:25;;;;;;;13.17;6.80;;;;;;;;;;4918266;29;20207;-75
2023/12/06 08:49:55;;;;;;;13.37;7.90;;;;;;;;;;4918413;29;20556;-74
2023/12/06 08:52:29;;;;;;;13.53;7.50;;;;;;;;;;4914256;29;20259;-71
2023/12/06 08:55:11;;;;;;;10.93;7.00;;;;;;;;;;4941037;28;20198;-69
2023/12/06 08:57:50;;;;;;;16.90;7.07;;;;;;;;;;4976249;28;20201;-67
2023/12/06 09:00:18;;;;;;;14.03;6.73;;;;;;;;;;4977558;28;20201;-67
2023/12/06 09:02:54;;;;;;;14.33;7.30;;;;;;;;;;4977353;28;20524;-64
2023/12/06 09:05:34;;;;;;;13.67;7.40;;;;;;;;;;4977958;28;20446;-65
2023/12/06 09:08:07;;;;;;;12.10;6.93;;;;;;;;;;4977802;28;20455;-66
2023/12/06 09:10:36;;;;;;;14.53;7.77;;;;;;;;;;4978101;28;20464;-69
2023/12/06 09:13:29;;;;;;;13.47;7.57;;;;;;;;;;4977726;28;20437;-66
2023/12/06 09:16:09;;;;;;;13.23;8.00;;;;;;;;;;4976533;28;20449;-64
2023/12/06 09:18:37;;;;;;;9.80;6.73;;;;;;;;;;4977733;28;20201;-65
2023/12/06 09:21:05;;;;;;;11.43;7.40;;;;;;;;;;4977859;28;20233;-64
2023/12/06 09:23:38;;;;;;;18.03;8.00;;;;;;;;;;4977838;28;20654;-66
2023/12/06 09:26:09;;;;;;;17.53;6.80;;;;;;;;;;4980040;28;20441;-65
2023/12/06 09:28:42;;;;;;;11.83;7.97;;;;;;;;;;4977755;28;20444;-65
2023/12/06 09:31:16;;;;;;;12.00;9.53;;;;;;;;;;4977600;28;20472;-65
2023/12/06 09:33:46;;;;;;;14.27;8.30;;;;;;;;;;4977764;28;20453;-66
2023/12/06 09:39:31;;;;;;;12.90;8.27;;;;;;;;;;4977021;28;20484;-65
2023/12/06 09:42:08;;;;;;;18.73;9.43;;;;;;;;;;4974458;28;20832;-66
2023/12/06 09:44:37;;;;;;;17.83;9.53;;;;;;;;;;4974941;28;20440;-67
2023/12/06 09:47:07;;;;;;;18.80;9.47;;;;;;;;;;4973855;28;20440;-65
2023/12/06 09:49:35;;;;;;;13.20;9.30;;;;;;;;;;4976309;28;20441;-66
2023/12/06 09:52:07;;;;;;;13.67;8.83;;;;;;;;;;4976919;28;20633;-64
2023/12/06 09:54:39;;;;;;;13.77;8.47;;;;;;;;;;4977506;28;20447;-65
2023/12/06 09:57:07;;;;;;;13.07;8.30;;;;;;;;;;4979982;28;20471;-64
2023/12/06 09:59:35;;;;;;;13.77;8.03;;;;;;;;;;4982511;28;20219;-65
2023/12/06 10:02:03;;;;;;;12.77;7.97;;;;;;;;;;4981558;28;20230;-66
2023/12/06 10:04:34;;;;;;;14.67;8.13;;;;;;;;;;4976168;28;20228;-66
2023/12/06 10:07:02;;;;;;;11.70;7.40;;;;;;;;;;4979780;28;20245;-65
2023/12/06 10:09:31;;;;;;;20.33;8.20;;;;;;;;;;4979564;28;20198;-65
2023/12/06 10:12:06;;;;;;;17.13;8.50;;;;;;;;;;4972168;28;20317;-66
2023/12/06 10:14:35;;;;;;;11.90;7.90;;;;;;;;;;4980120;28;20205;-66
2023/12/06 10:17:03;;;;;;;13.70;7.93;;;;;;;;;;4981384;28;20205;-65
2023/12/06 10:19:33;;;;;;;14.10;8.43;;;;;;;;;;4980955;28;20569;-65
2023/12/06 10:22:01;;;;;;;12.73;7.60;;;;;;;;;;4976371;28;20264;-65
2023/12/06 10:24:29;;;;;;;12.17;7.30;;;;;;;;;;4980772;28;20656;-65
2023/12/06 10:27:03;;;;;;;12.93;7.53;;;;;;;;;;4981226;28;20261;-65
2023/12/06 10:29:31;;;;;;;12.20;8.47;;;;;;;;;;4971499;28;20292;-64
2023/12/06 10:32:02;;;;;;;11.33;7.10;;;;;;;;;;4975705;28;20312;-66
2023/12/06 10:34:34;;;;;;;14.57;8.13;;;;;;;;;;4968467;28;20198;-67
2023/12/06 10:37:05;;;;;;;14.47;8.43;;;;;;;;;;4977348;28;20206;-68
2023/12/06 10:39:36;;;;;;;14.10;7.60;;;;;;;;;;4980578;28;20237;-68
2023/12/06 10:42:09;;;;;;;14.67;7.47;;;;;;;;;;4980656;28;20221;-69
2023/12/06 10:44:40;;;;;;;9.70;6.77;;;;;;;;;;4977798;28;20224;-68
2023/12/06 10:47:17;;;;;;;13.00;6.70;;;;;;;;;;4977824;28;20206;-68
2023/12/06 10:49:49;;;;;;;16.13;7.00;;;;;;;;;;4972447;28;20649;-66
2023/12/06 10:52:39;;;;;;;8.17;5.60;;;;;;;;;;4971443;28;20225;-67
2023/12/06 10:55:18;;;;;;;11.97;6.53;;;;;;;;;;4977627;28;20197;-70
2023/12/06 10:57:47;;;;;;;10.30;5.17;;;;;;;;;;4978613;28;20293;-67
2023/12/06 11:00:17;;;;;;;9.57;5.50;;;;;;;;;;4978760;28;20569;-68
2023/12/06 11:02:46;;;;;;;6.70;5.20;;;;;;;;;;4981298;28;20209;-69
2023/12/06 11:05:18;;;;;;;11.77;4.97;;;;;;;;;;4980451;28;20225;-69
2023/12/06 11:07:58;;;;;;;5.83;4.77;;;;;;;;;;4978700;28;20205;-68
2023/12/06 11:10:35;;;;;;;8.40;5.03;;;;;;;;;;4977926;28;20574;-66
2023/12/06 11:13:07;;;;;;;8.37;4.57;;;;;;;;;;4978063;28;20236;-67
2023/12/06 11:15:43;;;;;;;6.43;4.30;;;;;;;;;;4976480;28;20198;-67
2023/12/06 11:22:00;;;;;;;7.60;4.43;;;;;;;;;;4948903;28;20284;-70
2023/12/06 11:24:50;;;;;;;7.07;4.43;;;;;;;;;;4980833;28;20312;-70
2023/12/06 11:27:24;;;;;;;6.40;3.40;;;;;;;;;;4979217;28;20289;-67
2023/12/06 11:29:53;;;;;;;5.83;3.40;;;;;;;;;;4974399;28;20252;-69
2023/12/06 11:32:22;;;;;;;7.73;3.67;;;;;;;;;;4977517;28;20228;-67
2023/12/06 11:34:55;;;;;;;24.53;10.80;;;;;;;;;;4972995;28;20202;-65
2023/12/06 11:37:28;;;;;;;7.60;3.70;;;;;;;;;;4977584;28;20201;-64
2023/12/06 11:40:14;;;;;;;5.77;2.97;;;;;;;;;;4980967;28;20238;-68
2023/12/06 11:42:42;;;;;;;6.87;3.53;;;;;;;;;;4979794;28;20205;-65
2023/12/06 11:45:23;;;;;;;7.17;3.87;;;;;;;;;;4975228;28;20233;-65
2023/12/06 11:47:52;;;;;;;5.30;3.57;;;;;;;;;;4973086;28;20272;-65
2023/12/06 11:50:52;;;;;;;9.13;3.27;;;;;;;;;;4978870;28;20206;-65
2023/12/06 11:53:24;;;;;;;4.73;3.23;;;;;;;;;;4976246;28;20237;-69
2023/12/06 11:55:54;;;;;;;4.07;3.00;;;;;;;;;;4976732;28;20210;-69
2023/12/06 11:58:23;;;;;;;4.63;3.37;;;;;;;;;;4976826;28;20206;-66
2023/12/06 12:00:52;;;;;;;4.60;2.80;;;;;;;;;;4979036;28;20229;-64
2023/12/06 12:03:23;;;;;;;5.63;2.70;;;;;;;;;;4978560;28;20201;-66
2023/12/06 12:06:04;;;;;;;4.27;2.70;;;;;;;;;;4978189;28;20201;-64
2023/12/06 12:08:39;;;;;;;5.90;2.97;;;;;;;;;;4971128;28;20217;-65
2023/12/06 12:11:14;;;;;;;4.87;2.90;;;;;;;;;;4978917;28;20229;-62
2023/12/06 12:13:43;;;;;;;7.67;2.90;;;;;;;;;;4976013;28;20205;-62
2023/12/06 12:16:15;;;;;;;4.07;2.60;;;;;;;;;;4978320;28;20256;-62
2023/12/06 12:18:44;;;;;;;2.27;1.90;;;;;;;;;;4978266;28;20215;-62
2023/12/06 12:21:23;;;;;;;3.70;2.47;;;;;;;;;;4978095;28;20253;-63
2023/12/06 12:23:55;;;;;;;3.33;2.70;;;;;;;;;;4977464;28;20209;-61
2023/12/06 12:26:23;;;;;;;3.33;2.50;;;;;;;;;;4978953;28;20201;-62
2023/12/06 12:29:13;;;;;;;4.30;2.57;;;;;;;;;;4977979;28;20205;-63
2023/12/06 12:31:58;;;;;;;4.23;2.50;;;;;;;;;;4976557;28;20231;-63
2023/12/06 12:34:27;;;;;;;6.63;2.60;;;;;;;;;;4978379;28;20202;-63
2023/12/06 12:37:05;;;;;;;3.57;2.60;;;;;;;;;;4978056;28;20700;-64
2023/12/06 12:39:42;;;;;;;4.63;2.40;;;;;;;;;;4978162;28;20249;-63
2023/12/06 12:42:16;;;;;;;5.50;2.80;;;;;;;;;;4979025;28;20234;-62
2023/12/06 12:48:00;;;;;;;3.87;2.60;;;;;;;;;;4926663;28;20201;-64
2023/12/06 12:50:30;;;;;;;6.83;2.90;;;;;;;;;;4974132;28;20232;-63
2023/12/06 12:53:13;;;;;;;3.87;2.97;;;;;;;;;;4977736;28;20360;-63
2023/12/06 12:56:26;;;;;;;4.90;3.20;;;;;;;;;;4973136;28;20240;-63
2023/12/06 12:59:23;;;;;;;3.27;2.33;;;;;;;;;;4978551;28;20220;-61
2023/12/06 13:01:54;;;;;;;4.13;2.53;;;;;;;;;;4967172;28;20275;-62
2023/12/06 13:04:23;;;;;;;11.70;2.90;;;;;;;;;;4976340;28;20251;-63
2023/12/06 13:06:55;;;;;;;7.13;2.83;;;;;;;;;;4972902;28;20256;-64
2023/12/06 13:09:25;;;;;;;4.30;2.20;;;;;;;;;;4976033;28;20201;-64
2023/12/06 13:12:01;;;;;;;7.53;2.70;;;;;;;;;;4978375;28;20705;-62
2023/12/06 13:14:55;;;;;;;6.77;2.87;;;;;;;;;;4976948;28;20252;-64
2023/12/06 13:17:48;;;;;;;4.27;3.03;;;;;;;;;;4969130;28;20218;-63
2023/12/06 13:20:22;;;;;;;4.83;2.27;;;;;;;;;;4965542;28;20202;-63
2023/12/06 13:23:06;;;;;;;7.87;3.03;;;;;;;;;;4977644;28;20205;-62
2023/12/06 13:25:40;;;;;;;9.33;4.07;;;;;;;;;;4974576;28;20689;-64
2023/12/06 13:35:01;;;;;;;3.00;2.10;;;;;;;;;;4856730;29;20203;-62
2023/12/06 13:38:02;;;;;;;4.97;2.93;;;;;;;;;;4919890;28;20210;-64
2023/12/06 13:40:30;;;;;;;5.97;2.30;;;;;;;;;;4984289;28;20249;-63
2023/12/06 13:43:01;;;;;;;2.73;2.00;;;;;;;;;;4981693;28;20221;-62
2023/12/06 13:45:36;;;;;;;4.27;2.10;;;;;;;;;;4981654;28;20226;-66
2023/12/06 13:48:15;;;;;;;2.20;1.90;;;;;;;;;;4981073;28;20201;-65
2023/12/06 13:57:10;;;;;;;3.17;2.40;;;;;;;;;;4980360;28;20212;-66
2023/12/06 13:59:38;;;;;;;5.77;2.60;;;;;;;;;;4981346;28;20685;-65
2023/12/06 14:02:06;;;;;;;2.43;1.80;;;;;;;;;;4981328;28;20230;-64
2023/12/06 14:04:35;;;;;;;6.50;2.53;;;;;;;;;;4981205;28;20233;-64
2023/12/06 14:07:04;;;;;;;3.23;2.37;;;;;;;;;;4980667;28;20212;-64
2023/12/06 14:09:35;;;;;;;2.43;2.23;;;;;;;;;;4980503;28;20676;-64
2023/12/06 14:12:03;;;;;;;6.37;2.63;;;;;;;;;;4980947;28;20249;-63
2023/12/06 14:14:32;;;;;;;3.00;2.17;;;;;;;;;;4981049;28;20205;-64
2023/12/06 14:17:03;;;;;;;4.90;3.00;;;;;;;;;;4980685;28;20241;-63
2023/12/06 14:19:47;;;;;;;4.10;2.63;;;;;;;;;;4978606;28;20209;-63
2023/12/06 14:22:47;;;;;;;3.57;2.37;;;;;;;;;;4973313;28;20209;-64
2023/12/06 14:25:19;;;;;;;5.40;2.63;;;;;;;;;;4980638;28;20221;-63
2023/12/06 14:27:53;;;;;;;6.33;2.60;;;;;;;;;;4980861;28;20209;-64
2023/12/06 14:30:22;;;;;;;6.97;2.93;;;;;;;;;;4980564;28;20209;-63
2023/12/06 14:33:06;;;;;;;3.47;2.93;;;;;;;;;;4981059;28;20205;-63
2023/12/06 14:35:34;;;;;;;6.40;3.20;;;;;;;;;;4980648;28;20559;-64
2023/12/06 14:38:04;;;;;;;6.37;2.73;;;;;;;;;;4980625;28;20202;-63
2023/12/06 14:40:39;;;;;;;4.90;3.00;;;;;;;;;;4983841;28;20590;-64
2023/12/06 14:43:08;;;;;;;5.93;3.27;;;;;;;;;;4973712;28;20236;-64
2023/12/06 14:45:36;;;;;;;7.47;3.10;;;;;;;;;;4972103;28;20308;-63
2023/12/06 14:48:05;;;;;;;9.03;3.30;;;;;;;;;;4980104;28;20206;-63
2023/12/06 14:50:33;;;;;;;6.77;3.10;;;;;;;;;;4980251;28;20230;-63
2023/12/06 14:53:01;;;;;;;5.60;3.00;;;;;;;;;;4979661;28;20209;-63
2023/12/06 14:55:29;;;;;;;4.83;2.67;;;;;;;;;;4980005;28;20264;-62
2023/12/06 14:57:58;;;;;;;3.47;2.00;;;;;;;;;;4981816;28;20212;-63
2023/12/06 15:00:26;;;;;;;2.43;1.90;;;;;;;;;;4980702;28;20669;-63
2023/12/06 15:02:54;;;;;;;1.77;1.67;;;;;;;;;;4980312;28;20209;-63
2023/12/06 15:05:23;;;;;;;2.03;1.90;;;;;;;;;;4979571;28;20226;-63
2023/12/06 15:07:51;;;;;;;2.10;2.00;;;;;;;;;;4980319;28;20213;-63
2023/12/06 15:10:19;;;;;;;2.27;1.90;;;;;;;;;;4978528;28;20209;-63
2023/12/06 15:12:47;;;;;;;2.53;2.00;;;;;;;;;;4969040;28;20206;-62
2023/12/06 15:15:17;;;;;;;3.73;2.10;;;;;;;;;;4979548;28;20210;-61
2023/12/06 15:17:45;;;;;;;4.33;2.00;;;;;;;;;;4980309;28;20290;-64
2023/12/06 15:20:13;;;;;;;3.33;2.10;;;;;;;;;;4980187;28;20206;-62
2023/12/06 15:22:42;;;;;;;1.60;1.50;;;;;;;;;;4979945;28;20222;-62
2023/12/06 15:25:10;;;;;;;2.57;2.27;;;;;;;;;;4971070;28;20296;-63
2023/12/06 15:27:40;;;;;;;3.13;2.13;;;;;;;;;;4977243;28;20241;-63
2023/12/06 15:30:09;;;;;;;3.03;2.40;;;;;;;;;;4978814;28;20228;-62
2023/12/06 15:32:40;;;;;;;3.07;2.60;;;;;;;;;;4979980;28;20206;-62
2023/12/06 15:35:08;;;;;;;3.70;2.57;;;;;;;;;;4979008;28;20284;-62
2023/12/06 15:37:37;;;;;;;2.00;1.90;;;;;;;;;;4979747;28;20284;-62
2023/12/06 15:40:08;;;;;;;2.57;2.37;;;;;;;;;;4979452;28;20603;-63
2023/12/06 15:42:37;;;;;;;3.27;2.37;;;;;;;;;;4979717;28;20252;-62
2023/12/06 15:45:05;;;;;;;4.90;2.73;;;;;;;;;;4975572;28;20198;-62
2023/12/06 15:47:33;;;;;;;7.73;3.37;;;;;;;;;;4976685;28;20225;-61
2023/12/06 15:50:06;;;;;;;4.00;2.90;;;;;;;;;;4979685;28;20269;-62
2023/12/06 15:52:34;;;;;;;3.57;2.60;;;;;;;;;;4979141;28;20685;-62
2023/12/06 15:55:02;;;;;;;3.17;2.83;;;;;;;;;;4978622;28;20205;-62
2023/12/06 15:57:31;;;;;;;3.37;2.57;;;;;;;;;;4983444;28;20205;-63
2023/12/06 15:59:59;;;;;;;2.90;2.57;;;;;;;;;;4981169;28;20205;-63
2023/12/06 16:02:27;;;;;;;4.43;2.70;;;;;;;;;;4971595;28;20257;-63
2023/12/06 16:04:56;;;;;;;4.47;2.37;;;;;;;;;;4970173;28;20206;-63
2023/12/06 16:07:25;;;;;;;4.80;3.07;;;;;;;;;;4979400;28;20229;-63
2023/12/06 16:09:54;;;;;;;6.70;3.10;;;;;;;;;;4979119;28;20209;-63
2023/12/06 16:12:30;;;;;;;7.80;3.30;;;;;;;;;;4979501;28;20276;-64
2023/12/06 16:14:58;;;;;;;3.83;3.40;;;;;;;;;;4978428;28;20564;-63